Time;durP1;ratioP1;P1;durP2;ratioP2;P2;SDS_P1;SDS_P2;PMS_P1;PMS_P2;Temp;Humidity;BMP_temperature;BMP_pressure;BME280_temperature;BME280_humidity;BME280_pressure;Samples;Min_cycle;Max_cycle;Signal;HPM_P1;HPM_P2
2022/08/23 00:01:54;;;;;;;2.20;1.75;;;18.70;52.50;;;;;;5000773;28;20507;-79
2022/08/23 00:04:22;;;;;;;1.90;1.50;;;18.70;52.50;;;;;;5000480;28;20038;-78
2022/08/23 00:06:48;;;;;;;3.08;1.70;;;18.60;52.70;;;;;;5005097;28;20042;-80
2022/08/23 00:09:14;;;;;;;2.90;1.83;;;18.60;52.80;;;;;;5002285;28;20096;-79
2022/08/23 00:11:47;;;;;;;2.65;1.98;;;18.60;53.00;;;;;;5000837;28;20088;-79
2022/08/23 00:14:22;;;;;;;2.45;1.77;;;18.50;53.00;;;;;;5004305;28;20042;-79
2022/08/23 00:16:48;;;;;;;2.53;1.58;;;18.50;53.10;;;;;;5003467;28;20109;-79
2022/08/23 00:19:15;;;;;;;3.10;1.35;;;18.50;53.20;;;;;;5000695;28;20124;-79
2022/08/23 00:21:41;;;;;;;3.15;1.63;;;18.40;53.20;;;;;;5001385;28;20519;-79
2022/08/23 00:24:06;;;;;;;2.85;1.60;;;18.40;53.30;;;;;;5001953;28;20524;-79
2022/08/23 00:27:08;;;;;;;3.42;1.50;;;18.40;53.50;;;;;;4982393;28;20120;-80
2022/08/23 00:29:42;;;;;;;2.00;1.70;;;18.30;54.00;;;;;;5002098;28;20026;-79
2022/08/23 00:32:09;;;;;;;2.13;1.73;;;18.30;53.60;;;;;;5002133;28;20173;-79
2022/08/23 00:34:35;;;;;;;3.25;1.40;;;18.20;53.70;;;;;;4999910;28;20041;-79
2022/08/23 00:37:01;;;;;;;1.90;1.42;;;18.20;53.80;;;;;;4986451;28;20039;-79
2022/08/23 00:39:27;;;;;;;1.75;1.38;;;18.20;54.00;;;;;;4999392;28;20141;-79
2022/08/23 00:41:59;;;;;;;1.70;1.60;;;18.10;54.00;;;;;;4969707;28;20141;-79
2022/08/23 00:50:19;;;;;;;2.22;1.60;;;18.00;54.20;;;;;;5000511;28;20122;-79
2022/08/23 00:52:49;;;;;;;3.08;1.88;;;18.00;54.50;;;;;;5004429;28;20495;-79
2022/08/23 00:55:15;;;;;;;2.80;1.52;;;17.90;54.50;;;;;;4991433;28;20033;-79
2022/08/23 00:57:41;;;;;;;2.50;1.35;;;17.90;54.60;;;;;;5001245;28;20037;-79
2022/08/23 01:00:07;;;;;;;2.50;1.73;;;17.90;54.70;;;;;;4986119;28;20061;-79
2022/08/23 01:02:33;;;;;;;1.80;1.52;;;17.80;54.80;;;;;;4999553;28;20037;-79
2022/08/23 01:04:59;;;;;;;6.35;1.98;;;17.80;54.90;;;;;;4996512;28;20053;-80
2022/08/23 01:07:36;;;;;;;3.72;1.50;;;17.80;55.00;;;;;;5003835;28;20040;-79
2022/08/23 01:10:08;;;;;;;6.15;1.75;;;17.80;55.30;;;;;;5001261;28;20041;-79
2022/08/23 01:12:40;;;;;;;2.58;1.42;;;17.70;55.20;;;;;;4990988;28;20466;-79
2022/08/23 01:15:10;;;;;;;1.77;1.48;;;17.70;55.30;;;;;;4998716;28;20031;-79
2022/08/23 01:17:39;;;;;;;4.03;1.70;;;17.60;55.40;;;;;;4980453;28;20150;-79
2022/08/23 01:20:08;;;;;;;2.78;1.77;;;17.60;55.40;;;;;;4996570;28;20053;-79
2022/08/23 01:22:48;;;;;;;5.35;1.58;;;17.60;55.60;;;;;;4973213;28;20025;-79
2022/08/23 01:25:16;;;;;;;2.00;1.60;;;17.60;55.80;;;;;;5000709;28;20126;-79
2022/08/23 01:27:42;;;;;;;3.67;1.80;;;17.50;55.70;;;;;;4979662;28;20328;-79
2022/08/23 01:30:10;;;;;;;4.07;1.55;;;17.50;55.80;;;;;;4982972;28;20535;-79
2022/08/23 01:32:41;;;;;;;3.42;1.50;;;17.50;56.00;;;;;;4984479;28;20039;-79
2022/08/23 01:35:07;;;;;;;2.70;1.65;;;17.40;56.00;;;;;;4998649;28;20072;-79
2022/08/23 01:37:33;;;;;;;2.10;1.50;;;17.40;56.10;;;;;;5008248;28;20124;-79
2022/08/23 01:39:58;;;;;;;1.70;1.52;;;17.40;56.20;;;;;;4997350;28;20064;-79
2022/08/23 01:42:24;;;;;;;2.80;1.50;;;17.40;56.20;;;;;;5006462;28;20038;-79
2022/08/23 01:44:50;;;;;;;3.08;1.75;;;17.30;56.30;;;;;;5002048;28;20022;-79
2022/08/23 01:47:16;;;;;;;3.38;1.98;;;17.30;56.40;;;;;;4984109;28;20048;-79
2022/08/23 01:49:41;;;;;;;2.95;1.60;;;17.20;56.50;;;;;;4984918;28;20041;-78
2022/08/23 01:52:07;;;;;;;3.92;1.75;;;17.20;56.50;;;;;;5001877;28;20034;-79
2022/08/23 01:54:33;;;;;;;3.75;1.70;;;17.20;56.60;;;;;;4998890;28;20026;-79
2022/08/23 01:56:58;;;;;;;3.97;1.95;;;17.20;56.80;;;;;;4983507;28;20599;-79
2022/08/23 01:59:24;;;;;;;4.57;1.55;;;17.10;56.80;;;;;;5008335;28;20645;-79
2022/08/23 02:01:49;;;;;;;7.75;1.60;;;17.10;57.00;;;;;;5010436;28;20449;-78
2022/08/23 02:04:15;;;;;;;2.92;1.80;;;17.10;57.10;;;;;;5002125;28;20033;-79
2022/08/23 02:06:40;;;;;;;4.85;1.80;;;17.10;57.20;;;;;;5002400;28;20536;-79
2022/08/23 02:09:06;;;;;;;2.80;1.80;;;17.00;57.30;;;;;;4969959;28;20022;-79
2022/08/23 02:11:37;;;;;;;2.22;1.60;;;17.00;57.30;;;;;;4999413;28;20026;-78
2022/08/23 02:14:06;;;;;;;3.55;1.75;;;16.90;57.30;;;;;;4993342;28;20021;-79
2022/08/23 02:16:34;;;;;;;3.88;1.85;;;16.90;57.50;;;;;;4996387;28;20511;-79
2022/08/23 02:19:01;;;;;;;3.53;1.70;;;16.90;57.60;;;;;;4995602;28;20033;-79
2022/08/23 02:21:30;;;;;;;3.95;1.88;;;16.80;57.60;;;;;;4985794;28;20045;-79
2022/08/23 02:23:57;;;;;;;5.47;1.70;;;16.80;57.80;;;;;;5001865;28;20041;-79
2022/08/23 02:26:23;;;;;;;2.65;1.83;;;16.80;57.80;;;;;;4980226;28;20058;-79
2022/08/23 02:28:51;;;;;;;2.05;1.33;;;16.80;57.90;;;;;;5000096;28;20122;-79
2022/08/23 02:31:17;;;;;;;2.92;2.10;;;16.80;58.10;;;;;;5004407;28;20514;-79
2022/08/23 02:33:43;;;;;;;3.10;1.75;;;16.70;58.00;;;;;;5009652;28;20058;-79
2022/08/23 02:36:08;;;;;;;3.28;1.52;;;16.70;58.10;;;;;;4988010;28;20057;-79
2022/08/23 02:38:34;;;;;;;3.47;1.92;;;16.70;58.30;;;;;;4985833;28;20491;-79
2022/08/23 02:41:00;;;;;;;3.95;1.70;;;16.60;58.30;;;;;;5003431;28;20038;-79
2022/08/23 02:43:26;;;;;;;3.10;2.20;;;16.60;58.40;;;;;;5004115;28;20034;-78
2022/08/23 02:45:51;;;;;;;4.20;1.63;;;16.60;58.50;;;;;;4990915;28;20034;-79
2022/08/23 02:48:17;;;;;;;2.38;1.83;;;16.60;58.60;;;;;;4984303;28;20061;-79
2022/08/23 02:50:42;;;;;;;4.55;1.60;;;16.60;58.80;;;;;;5003189;28;20073;-79
2022/08/23 02:53:08;;;;;;;2.95;1.80;;;16.50;58.70;;;;;;5000533;28;20072;-80
2022/08/23 02:55:33;;;;;;;3.05;2.00;;;16.50;58.90;;;;;;4986277;28;20034;-80
2022/08/23 02:57:59;;;;;;;2.58;1.90;;;16.50;58.90;;;;;;5004412;28;20037;-79
2022/08/23 03:00:25;;;;;;;3.50;1.98;;;16.50;59.20;;;;;;4982847;28;20125;-79
2022/08/23 03:02:50;;;;;;;3.55;1.60;;;16.40;59.10;;;;;;4974204;28;20104;-79
2022/08/23 03:05:16;;;;;;;2.28;1.60;;;16.40;59.10;;;;;;4977187;28;20057;-79
2022/08/23 03:07:42;;;;;;;3.67;1.75;;;16.40;59.10;;;;;;4972150;28;20654;-79
2022/08/23 03:10:08;;;;;;;3.78;2.00;;;16.40;59.30;;;;;;4984725;28;20034;-79
2022/08/23 03:12:33;;;;;;;2.70;2.00;;;16.30;59.30;;;;;;4974983;28;20561;-79
2022/08/23 03:14:59;;;;;;;3.13;1.58;;;16.30;59.40;;;;;;4971602;28;20077;-80
2022/08/23 03:17:24;;;;;;;1.67;1.58;;;16.30;59.50;;;;;;4971223;28;20268;-79
2022/08/23 03:19:53;;;;;;;3.42;1.83;;;16.30;59.70;;;;;;5000967;28;20103;-79
2022/08/23 03:22:19;;;;;;;2.00;1.63;;;16.30;59.90;;;;;;5001275;28;20045;-78
2022/08/23 03:24:45;;;;;;;2.72;2.03;;;16.30;59.90;;;;;;4983012;28;20049;-79
2022/08/23 03:27:10;;;;;;;3.72;2.00;;;16.30;59.90;;;;;;4999438;28;20026;-78
2022/08/23 03:29:36;;;;;;;2.05;1.83;;;16.20;59.80;;;;;;4983424;28;20572;-78
2022/08/23 03:32:03;;;;;;;3.20;1.63;;;16.20;59.90;;;;;;5000113;28;20033;-79
2022/08/23 03:34:28;;;;;;;2.65;1.77;;;16.20;60.10;;;;;;4979965;28;20038;-78
2022/08/23 03:36:55;;;;;;;3.92;1.83;;;16.20;60.10;;;;;;5003631;28;20037;-78
2022/08/23 03:39:20;;;;;;;2.08;1.60;;;16.20;60.20;;;;;;4983490;28;20125;-78
2022/08/23 03:41:46;;;;;;;4.40;1.80;;;16.20;60.30;;;;;;4979376;28;20121;-78
2022/08/23 03:44:11;;;;;;;2.78;1.70;;;16.10;60.40;;;;;;4997785;28;20148;-77
2022/08/23 03:46:37;;;;;;;2.50;1.80;;;16.10;60.50;;;;;;4991032;28;20463;-78
2022/08/23 03:49:03;;;;;;;1.98;1.80;;;16.10;60.60;;;;;;4996032;28;20407;-78
2022/08/23 03:51:28;;;;;;;2.08;1.88;;;16.10;60.60;;;;;;5005268;28;20797;-78
2022/08/23 03:53:54;;;;;;;2.05;1.70;;;16.10;60.70;;;;;;4987773;28;20122;-78
2022/08/23 03:56:24;;;;;;;2.05;1.85;;;16.00;60.80;;;;;;4985887;28;20033;-78
2022/08/23 03:58:50;;;;;;;2.92;1.75;;;16.00;61.00;;;;;;4969022;28;20115;-78
2022/08/23 04:01:16;;;;;;;2.40;1.90;;;16.00;60.90;;;;;;4953365;28;20503;-78
2022/08/23 04:03:42;;;;;;;2.53;1.60;;;16.00;61.00;;;;;;4980486;28;20037;-78
2022/08/23 04:06:08;;;;;;;3.03;2.03;;;16.00;61.20;;;;;;5002347;28;20068;-78
2022/08/23 04:08:34;;;;;;;2.75;2.05;;;15.90;61.10;;;;;;4990295;28;20041;-78
2022/08/23 04:11:00;;;;;;;3.00;2.20;;;15.90;61.10;;;;;;4979364;28;20034;-78
2022/08/23 04:13:27;;;;;;;3.65;1.98;;;15.90;61.30;;;;;;4989689;28;20071;-78
2022/08/23 04:15:53;;;;;;;2.10;1.90;;;15.90;61.30;;;;;;4972659;28;20034;-78
2022/08/23 04:18:19;;;;;;;5.60;2.53;;;15.80;61.40;;;;;;4996664;28;20148;-78
2022/08/23 04:20:45;;;;;;;1.92;1.83;;;15.80;61.50;;;;;;4995685;28;20129;-78
2022/08/23 04:23:14;;;;;;;3.33;1.80;;;15.80;61.60;;;;;;4973702;28;20042;-78
2022/08/23 04:25:42;;;;;;;1.70;1.60;;;15.80;61.60;;;;;;4979888;28;20609;-79
2022/08/23 04:28:07;;;;;;;3.67;1.80;;;15.80;61.80;;;;;;4970055;28;20018;-78
2022/08/23 04:30:33;;;;;;;2.85;2.20;;;15.80;62.00;;;;;;5001633;28;20559;-78
2022/08/23 04:32:58;;;;;;;4.68;2.08;;;15.70;62.00;;;;;;4969219;28;20030;-78
2022/08/23 04:35:24;;;;;;;3.58;2.10;;;15.70;62.10;;;;;;4992321;28;20042;-78
2022/08/23 04:37:50;;;;;;;2.15;1.95;;;15.70;62.10;;;;;;4972591;28;20030;-78
2022/08/23 04:43:01;;;;;;;3.30;2.00;;;15.60;62.30;;;;;;5012314;28;20035;-78
2022/08/23 04:45:26;;;;;;;2.90;1.90;;;15.60;62.40;;;;;;4969566;28;20038;-79
2022/08/23 04:47:52;;;;;;;2.38;1.95;;;15.60;62.40;;;;;;4999541;28;20062;-78
2022/08/23 04:50:18;;;;;;;4.10;1.98;;;15.60;62.60;;;;;;4997429;28;20049;-79
2022/08/23 04:52:43;;;;;;;3.08;2.15;;;15.60;62.70;;;;;;4998602;28;20026;-79
2022/08/23 04:55:09;;;;;;;6.55;2.08;;;15.60;62.80;;;;;;5009608;28;20044;-79
2022/08/23 04:57:35;;;;;;;3.47;1.90;;;15.60;62.90;;;;;;4992713;28;20458;-79
2022/08/23 05:00:01;;;;;;;4.15;2.15;;;15.60;62.90;;;;;;4981556;28;20025;-79
2022/08/23 05:02:27;;;;;;;10.30;2.60;;;15.60;62.90;;;;;;5001831;28;20034;-79
2022/08/23 05:04:52;;;;;;;3.15;2.20;;;15.60;63.00;;;;;;4961195;28;20033;-80
2022/08/23 05:07:18;;;;;;;6.70;2.10;;;15.50;62.90;;;;;;4994113;28;20158;-80
2022/08/23 05:09:44;;;;;;;2.38;1.70;;;15.50;63.00;;;;;;4991655;28;20129;-80
2022/08/23 05:12:10;;;;;;;3.28;1.83;;;15.50;63.10;;;;;;4972745;28;20084;-80
2022/08/23 05:14:35;;;;;;;4.50;2.20;;;15.50;63.30;;;;;;4987482;28;20042;-80
2022/08/23 05:17:01;;;;;;;8.77;2.30;;;15.50;63.30;;;;;;4987194;28;20030;-80
2022/08/23 05:19:26;;;;;;;3.90;2.08;;;15.50;63.40;;;;;;4992707;28;20045;-80
2022/08/23 05:21:52;;;;;;;5.55;2.42;;;15.50;63.60;;;;;;5005830;28;20072;-80
2022/08/23 05:24:17;;;;;;;4.18;1.88;;;15.50;63.60;;;;;;4990381;28;20034;-80
2022/08/23 05:26:43;;;;;;;2.92;2.00;;;15.50;63.60;;;;;;4985114;28;20037;-80
2022/08/23 05:29:09;;;;;;;3.08;2.13;;;15.50;63.70;;;;;;5003312;28;20049;-80
2022/08/23 05:31:34;;;;;;;2.90;2.00;;;15.50;63.80;;;;;;4986412;28;20068;-79
2022/08/23 05:34:00;;;;;;;4.25;2.38;;;15.50;64.00;;;;;;4968815;28;20037;-79
2022/08/23 05:36:25;;;;;;;4.35;2.20;;;15.50;64.20;;;;;;4988772;28;20049;-79
2022/08/23 05:38:52;;;;;;;2.75;2.10;;;15.50;64.30;;;;;;4984252;28;20042;-79
2022/08/23 05:41:18;;;;;;;3.88;2.38;;;15.50;64.50;;;;;;5003606;28;20452;-79
2022/08/23 05:43:43;;;;;;;3.72;2.50;;;15.50;64.60;;;;;;4996309;28;20046;-79
2022/08/23 05:46:11;;;;;;;5.50;2.80;;;15.60;64.80;;;;;;4985879;28;20046;-79
2022/08/23 05:48:36;;;;;;;4.15;2.55;;;15.60;65.20;;;;;;4999188;28;20030;-79
2022/08/23 05:51:16;;;;;;;5.40;2.88;;;15.70;65.30;;;;;;4997679;28;20092;-80
2022/08/23 05:53:42;;;;;;;3.97;2.25;;;15.70;66.60;;;;;;4985370;28;20057;-79
2022/08/23 05:56:19;;;;;;;2.75;2.55;;;15.70;65.20;;;;;;5003576;28;20030;-79
2022/08/23 05:58:45;;;;;;;3.42;2.40;;;15.70;65.60;;;;;;4988424;28;20044;-80
2022/08/23 06:01:11;;;;;;;4.88;3.00;;;15.80;65.50;;;;;;4998822;28;20049;-79
2022/08/23 06:03:36;;;;;;;10.07;2.63;;;15.80;65.60;;;;;;5001474;28;20676;-79
2022/08/23 06:06:02;;;;;;;8.02;3.15;;;15.90;65.80;;;;;;4996245;28;20821;-80
2022/08/23 06:08:28;;;;;;;5.28;3.40;;;15.90;65.80;;;;;;4992512;28;20037;-80
2022/08/23 06:11:12;;;;;;;10.77;3.10;;;16.00;65.90;;;;;;5011035;28;20084;-80
2022/08/23 06:13:42;;;;;;;4.15;3.40;;;16.00;66.70;;;;;;4988539;28;20439;-78
2022/08/23 06:16:08;;;;;;;4.23;3.17;;;16.10;66.10;;;;;;5003023;28;20080;-78
2022/08/23 06:18:33;;;;;;;9.40;3.05;;;16.20;66.00;;;;;;5006691;28;20042;-78
2022/08/23 06:21:10;;;;;;;14.05;2.83;;;16.20;66.10;;;;;;4979402;28;20034;-79
2022/08/23 06:23:36;;;;;;;9.65;2.75;;;16.30;66.60;;;;;;4974098;28;20026;-79
2022/08/23 06:26:16;;;;;;;5.22;2.92;;;16.40;66.20;;;;;;4977773;28;20089;-79
2022/08/23 06:28:43;;;;;;;13.40;3.00;;;16.50;66.40;;;;;;5014740;28;20027;-79
2022/08/23 06:31:09;;;;;;;8.30;3.85;;;16.60;66.10;;;;;;5000887;28;20095;-78
2022/08/23 06:33:36;;;;;;;5.93;3.15;;;16.70;66.10;;;;;;4996810;28;20022;-79
2022/08/23 06:36:07;;;;;;;4.00;2.47;;;16.80;66.00;;;;;;5018926;28;20030;-79
2022/08/23 06:38:33;;;;;;;2.78;2.53;;;16.90;65.90;;;;;;4988284;28;20061;-79
2022/08/23 06:41:02;;;;;;;4.72;2.80;;;17.10;65.60;;;;;;4998037;28;20195;-79
2022/08/23 06:43:28;;;;;;;5.65;2.55;;;17.20;65.60;;;;;;5001146;28;20062;-79
2022/08/23 06:45:54;;;;;;;9.50;3.85;;;17.30;65.30;;;;;;4991047;28;20642;-79
2022/08/23 06:48:19;;;;;;;8.45;4.22;;;17.40;65.00;;;;;;4998305;28;20121;-79
2022/08/23 06:50:45;;;;;;;5.03;3.78;;;17.60;65.00;;;;;;4994380;28;20037;-80
2022/08/23 06:53:11;;;;;;;7.28;3.72;;;17.70;64.80;;;;;;4983349;28;20030;-79
2022/08/23 06:55:37;;;;;;;8.05;2.97;;;17.80;64.70;;;;;;5001893;28;20034;-79
2022/08/23 06:58:03;;;;;;;11.80;3.10;;;17.90;64.40;;;;;;5007335;28;20450;-79
2022/08/23 07:00:28;;;;;;;11.77;3.65;;;18.00;64.20;;;;;;4987881;28;20046;-79
2022/08/23 07:02:54;;;;;;;3.83;2.90;;;18.10;64.00;;;;;;4998182;28;20409;-79
2022/08/23 07:05:20;;;;;;;8.18;3.10;;;18.30;63.80;;;;;;5006213;28;20049;-79
2022/08/23 07:07:46;;;;;;;6.03;2.92;;;18.40;63.60;;;;;;4985177;28;20406;-78
2022/08/23 07:10:11;;;;;;;4.57;2.97;;;18.60;63.50;;;;;;5014221;28;20029;-78
2022/08/23 07:12:40;;;;;;;6.13;2.47;;;18.70;63.30;;;;;;5017245;28;20053;-78
2022/08/23 07:15:07;;;;;;;7.57;3.45;;;18.90;63.00;;;;;;5021930;28;20045;-78
2022/08/23 07:17:32;;;;;;;6.45;2.35;;;19.00;62.70;;;;;;5023911;28;20061;-78
2022/08/23 07:19:58;;;;;;;6.25;2.40;;;19.20;62.50;;;;;;5006969;28;20050;-78
2022/08/23 07:22:23;;;;;;;3.90;2.30;;;19.30;62.20;;;;;;5000927;28;20038;-78
2022/08/23 07:24:49;;;;;;;5.43;2.50;;;19.50;61.90;;;;;;4990381;28;20034;-78
2022/08/23 07:27:14;;;;;;;9.27;2.58;;;19.70;61.70;;;;;;5019850;28;21840;-79
2022/08/23 07:29:40;;;;;;;4.78;2.33;;;19.80;61.30;;;;;;4992515;28;20042;-78
2022/08/23 07:32:06;;;;;;;10.35;3.20;;;20.00;61.00;;;;;;4969039;28;20110;-79
2022/08/23 07:34:32;;;;;;;6.22;2.20;;;20.20;60.80;;;;;;5004117;28;20668;-79
2022/08/23 07:36:57;;;;;;;2.50;2.10;;;20.40;60.50;;;;;;4968901;28;20026;-78
2022/08/23 07:39:25;;;;;;;3.15;2.35;;;20.50;60.10;;;;;;4987089;28;20037;-78
2022/08/23 07:41:51;;;;;;;3.42;1.98;;;20.70;59.80;;;;;;4987881;28;20092;-79
2022/08/23 07:44:17;;;;;;;4.88;2.33;;;20.80;59.50;;;;;;4972191;28;20029;-79
2022/08/23 07:46:43;;;;;;;5.85;2.30;;;21.00;59.30;;;;;;4969842;28;20046;-79
2022/08/23 07:49:08;;;;;;;4.88;2.15;;;21.20;59.00;;;;;;5000637;28;20033;-79
2022/08/23 07:51:34;;;;;;;6.07;2.10;;;21.30;58.60;;;;;;5001621;28;20038;-78
2022/08/23 07:54:08;;;;;;;4.68;1.85;;;21.50;58.40;;;;;;4994968;28;20026;-78
2022/08/23 07:56:33;;;;;;;5.65;2.47;;;21.60;58.00;;;;;;5000300;28;20065;-79
2022/08/23 07:59:00;;;;;;;5.28;2.30;;;21.90;57.80;;;;;;4999292;28;20839;-79
2022/08/23 08:01:26;;;;;;;3.95;1.88;;;22.00;57.30;;;;;;5015430;28;20404;-79
2022/08/23 08:03:53;;;;;;;3.13;2.05;;;22.30;57.00;;;;;;4983616;28;20029;-79
2022/08/23 08:06:30;;;;;;;5.22;2.00;;;22.50;56.60;;;;;;4979380;28;20050;-79
2022/08/23 08:08:56;;;;;;;4.10;2.00;;;22.70;56.10;;;;;;4970576;28;20068;-79
2022/08/23 08:11:24;;;;;;;3.75;1.95;;;22.80;55.90;;;;;;5006095;28;20038;-79
2022/08/23 08:13:50;;;;;;;3.80;1.95;;;23.00;55.60;;;;;;4978266;28;20034;-79
2022/08/23 08:16:22;;;;;;;5.30;2.00;;;23.30;55.20;;;;;;4932532;28;20037;-79
2022/08/23 08:18:48;;;;;;;4.72;1.90;;;23.50;54.80;;;;;;4994791;28;20037;-79
2022/08/23 08:21:15;;;;;;;3.42;1.80;;;23.60;54.60;;;;;;4988537;28;20042;-79
2022/08/23 08:23:40;;;;;;;5.35;2.17;;;23.90;54.20;;;;;;4962309;28;20118;-79
2022/08/23 08:26:06;;;;;;;4.88;1.90;;;24.00;53.90;;;;;;5000489;28;20101;-79
2022/08/23 08:28:32;;;;;;;6.75;2.22;;;24.30;53.60;;;;;;5001685;28;20511;-80
2022/08/23 08:30:58;;;;;;;4.07;1.90;;;24.50;53.20;;;;;;4978583;28;20026;-79
2022/08/23 08:33:25;;;;;;;2.85;1.80;;;24.60;52.70;;;;;;4986841;28;20046;-80
2022/08/23 08:35:50;;;;;;;6.47;2.00;;;24.90;52.50;;;;;;4999151;28;20084;-79
2022/08/23 08:38:16;;;;;;;4.32;1.67;;;25.10;52.10;;;;;;4998711;28;20037;-79
2022/08/23 08:40:41;;;;;;;2.80;1.85;;;25.30;51.70;;;;;;4993364;28;20117;-79
2022/08/23 08:43:40;;;;;;;2.78;1.60;;;25.50;51.30;;;;;;4987154;28;20123;-79
2022/08/23 08:46:13;;;;;;;3.33;1.63;;;25.70;50.60;;;;;;4956223;28;20041;-80
2022/08/23 08:48:45;;;;;;;4.40;1.67;;;25.90;50.60;;;;;;4983730;28;20540;-80
2022/08/23 08:51:33;;;;;;;2.65;1.63;;;26.10;50.20;;;;;;4978977;28;20041;-79
2022/08/23 08:53:58;;;;;;;4.80;1.45;;;26.30;49.80;;;;;;4986981;28;20038;-80
2022/08/23 08:56:26;;;;;;;4.13;1.52;;;26.50;49.50;;;;;;4997906;28;21314;-80
2022/08/23 08:58:54;;;;;;;3.90;1.83;;;26.70;49.10;;;;;;4985562;28;20125;-79
2022/08/23 09:01:20;;;;;;;1.85;1.40;;;26.90;48.80;;;;;;4984562;28;20407;-79
2022/08/23 09:03:47;;;;;;;2.20;1.77;;;27.10;48.50;;;;;;5001700;28;20030;-81
2022/08/23 09:06:19;;;;;;;2.22;1.52;;;27.20;48.00;;;;;;4983935;28;20062;-80
2022/08/23 09:08:48;;;;;;;3.75;1.67;;;27.50;47.60;;;;;;4994881;28;20128;-79
2022/08/23 09:11:35;;;;;;;3.10;1.67;;;27.70;47.10;;;;;;5001346;28;20034;-79
2022/08/23 09:14:31;;;;;;;2.60;1.58;;;27.90;46.10;;;;;;5002025;28;20026;-78
2022/08/23 09:17:01;;;;;;;3.53;1.48;;;28.10;45.90;;;;;;4998457;28;20030;-79
2022/08/23 09:19:27;;;;;;;4.00;1.53;;;28.30;46.00;;;;;;4967646;28;20038;-79
2022/08/23 09:22:03;;;;;;;1.92;1.27;;;28.50;45.70;;;;;;5000560;28;20289;-78
2022/08/23 09:24:29;;;;;;;5.90;1.50;;;28.70;45.30;;;;;;4995059;28;20115;-78
2022/08/23 09:26:55;;;;;;;2.78;1.58;;;28.80;44.90;;;;;;4995320;28;20463;-78
2022/08/23 09:29:24;;;;;;;1.98;1.45;;;29.00;44.50;;;;;;4982542;28;20048;-78
2022/08/23 09:31:52;;;;;;;4.57;1.25;;;29.20;44.20;;;;;;4998667;28;20045;-80
2022/08/23 09:34:22;;;;;;;3.17;1.50;;;29.40;44.10;;;;;;4998333;28;20389;-79
2022/08/23 09:36:48;;;;;;;3.22;1.75;;;29.60;43.60;;;;;;4998076;28;20117;-78
2022/08/23 09:39:25;;;;;;;4.78;1.42;;;29.70;43.10;;;;;;4979485;28;20116;-79
2022/08/23 09:41:51;;;;;;;3.25;1.88;;;29.90;42.00;;;;;;5016402;28;20038;-79
2022/08/23 09:44:33;;;;;;;2.22;1.20;;;30.10;42.20;;;;;;4970498;28;20033;-79
2022/08/23 09:47:07;;;;;;;1.85;1.20;;;30.20;41.40;;;;;;4992300;28;20072;-79
2022/08/23 09:49:32;;;;;;;5.65;1.40;;;30.50;41.30;;;;;;5002917;28;20542;-79
2022/08/23 09:51:59;;;;;;;3.97;1.30;;;30.60;41.20;;;;;;5000856;28;20046;-78
2022/08/23 09:54:32;;;;;;;1.65;1.10;;;30.80;41.60;;;;;;5011334;28;20100;-78
2022/08/23 09:57:03;;;;;;;3.75;1.23;;;31.00;40.40;;;;;;5019224;28;20056;-78
2022/08/23 09:59:46;;;;;;;2.13;1.25;;;31.20;40.20;;;;;;4970834;28;20030;-79
2022/08/23 10:02:20;;;;;;;2.08;1.30;;;31.40;39.30;;;;;;4953710;28;20038;-79
2022/08/23 10:04:55;;;;;;;4.15;1.38;;;31.60;38.80;;;;;;4979087;28;20519;-79
2022/08/23 10:07:26;;;;;;;2.15;1.63;;;31.80;38.60;;;;;;4957955;28;20039;-79
2022/08/23 10:09:53;;;;;;;1.95;1.17;;;32.00;38.70;;;;;;4971630;28;20076;-79
2022/08/23 10:12:18;;;;;;;1.98;1.35;;;32.10;38.20;;;;;;4957539;28;20136;-79
2022/08/23 10:14:44;;;;;;;1.80;1.50;;;32.30;38.00;;;;;;4963763;28;20119;-79
2022/08/23 10:17:32;;;;;;;3.00;1.08;;;32.40;37.50;;;;;;4958107;28;20039;-79
2022/08/23 10:20:05;;;;;;;2.47;0.95;;;32.60;36.60;;;;;;4964528;28;20057;-79
2022/08/23 10:22:40;;;;;;;7.45;1.50;;;32.80;36.70;;;;;;4976747;28;20042;-79
2022/08/23 10:25:11;;;;;;;4.20;1.27;;;32.90;36.60;;;;;;4959389;28;20505;-79
2022/08/23 10:31:01;;;;;;;4.32;1.30;;;33.30;35.60;;;;;;4959334;28;20819;-79
2022/08/23 10:33:32;;;;;;;3.30;1.10;;;33.50;35.90;;;;;;4961982;28;20034;-79
2022/08/23 10:36:18;;;;;;;3.17;1.30;;;33.70;35.50;;;;;;4968471;28;20026;-79
2022/08/23 10:38:51;;;;;;;4.93;1.40;;;33.90;34.40;;;;;;4972710;28;20031;-78
2022/08/23 10:41:42;;;;;;;2.60;1.33;;;34.00;34.60;;;;;;4968036;28;20108;-78
2022/08/23 10:44:24;;;;;;;2.00;1.10;;;34.20;34.40;;;;;;4958175;28;20521;-79
2022/08/23 10:46:53;;;;;;;3.70;1.17;;;34.30;34.20;;;;;;4983635;28;20039;-78
2022/08/23 10:49:18;;;;;;;2.17;1.30;;;34.50;33.70;;;;;;4967712;28;20035;-78
2022/08/23 10:51:45;;;;;;;2.15;1.20;;;34.60;33.60;;;;;;4981474;28;20214;-79
2022/08/23 10:54:47;;;;;;;1.80;1.10;;;34.70;33.40;;;;;;4980320;28;20049;-79
2022/08/23 10:57:16;;;;;;;2.70;1.10;;;34.90;32.30;;;;;;4955150;28;20054;-79
2022/08/23 10:59:43;;;;;;;1.83;1.40;;;35.10;32.90;;;;;;4991433;28;20039;-78
2022/08/23 11:02:35;;;;;;;2.00;1.30;;;35.20;32.60;;;;;;4993613;28;20749;-79
2022/08/23 11:05:17;;;;;;;1.88;1.10;;;35.30;31.30;;;;;;4987680;28;20173;-79
2022/08/23 11:08:09;;;;;;;2.85;1.30;;;35.40;31.10;;;;;;4988568;28;20035;-80
2022/08/23 11:10:40;;;;;;;3.80;1.05;;;35.50;30.90;;;;;;4999924;28;20034;-79
2022/08/23 11:13:12;;;;;;;2.25;1.45;;;35.50;31.30;;;;;;5007749;28;20030;-79
2022/08/23 11:15:59;;;;;;;3.40;0.98;;;35.60;30.90;;;;;;5009957;28;20022;-79
2022/08/23 11:18:45;;;;;;;4.30;1.23;;;35.70;30.90;;;;;;5005448;28;20037;-79
2022/08/23 11:21:37;;;;;;;3.92;1.05;;;35.90;30.20;;;;;;4974841;28;20062;-78
2022/08/23 11:24:02;;;;;;;1.92;1.08;;;36.00;30.20;;;;;;4988297;28;20042;-79
2022/08/23 11:26:30;;;;;;;3.50;1.20;;;36.10;30.60;;;;;;4983921;28;20038;-79
2022/08/23 11:29:04;;;;;;;1.63;1.05;;;36.20;30.30;;;;;;4988796;28;20116;-80
2022/08/23 11:31:35;;;;;;;2.70;1.20;;;36.30;29.60;;;;;;4998931;28;20046;-79
2022/08/23 11:34:10;;;;;;;2.80;1.27;;;36.40;29.90;;;;;;5003810;28;20049;-79
2022/08/23 11:36:36;;;;;;;1.98;1.05;;;36.50;29.80;;;;;;4986354;28;20046;-79
2022/08/23 11:39:10;;;;;;;1.65;1.10;;;36.60;29.70;;;;;;4985659;28;20492;-77
2022/08/23 11:41:56;;;;;;;6.60;1.40;;;36.70;29.40;;;;;;4984144;28;20050;-77
2022/08/23 11:44:25;;;;;;;4.03;1.05;;;36.90;28.90;;;;;;5011080;28;20041;-77
2022/08/23 11:46:54;;;;;;;1.55;1.02;;;37.00;29.30;;;;;;4981368;28;20042;-77
2022/08/23 11:49:32;;;;;;;4.00;1.10;;;37.20;29.20;;;;;;4997579;28;20059;-78
2022/08/23 11:52:06;;;;;;;3.10;1.33;;;37.30;29.00;;;;;;4993958;28;20042;-77
2022/08/23 11:55:09;;;;;;;1.25;0.90;;;37.40;28.90;;;;;;4992801;28;20026;-78
2022/08/23 11:57:43;;;;;;;1.98;0.80;;;37.50;28.10;;;;;;4999196;28;20041;-78
2022/08/23 12:00:15;;;;;;;6.55;1.23;;;37.50;28.70;;;;;;4993880;28;20766;-77
2022/08/23 12:03:06;;;;;;;1.67;1.27;;;37.60;28.50;;;;;;4996470;28;20134;-78
2022/08/23 12:05:41;;;;;;;1.33;1.00;;;37.60;27.80;;;;;;4995134;28;20404;-76
2022/08/23 12:08:15;;;;;;;4.00;1.00;;;37.70;28.00;;;;;;4983668;28;20026;-78
2022/08/23 12:10:41;;;;;;;1.25;0.88;;;37.80;28.00;;;;;;4995514;28;20153;-78
2022/08/23 12:13:19;;;;;;;1.45;1.00;;;37.90;28.10;;;;;;4994656;28;20150;-77
2022/08/23 12:16:03;;;;;;;1.40;0.90;;;37.90;27.50;;;;;;4994360;28;20061;-78
2022/08/23 12:18:30;;;;;;;4.10;1.25;;;38.00;27.20;;;;;;4999325;28;20526;-77
2022/08/23 12:21:00;;;;;;;3.92;1.13;;;38.00;27.70;;;;;;4976939;28;20137;-78
2022/08/23 12:23:25;;;;;;;2.13;0.82;;;38.10;27.50;;;;;;4977267;28;20037;-78
2022/08/23 12:25:59;;;;;;;2.78;1.10;;;38.10;27.50;;;;;;4998565;28;20033;-78
2022/08/23 12:28:32;;;;;;;1.83;1.13;;;38.10;27.30;;;;;;4998036;28;20529;-78
2022/08/23 12:31:25;;;;;;;2.95;1.20;;;38.20;27.30;;;;;;4995135;28;20061;-77
2022/08/23 12:34:10;;;;;;;3.55;1.33;;;38.20;26.80;;;;;;4990231;28;21047;-78
2022/08/23 12:36:44;;;;;;;2.97;1.25;;;38.30;26.90;;;;;;4980361;28;20611;-78
2022/08/23 12:39:32;;;;;;;2.05;0.88;;;38.40;27.00;;;;;;4997784;28;20038;-78
2022/08/23 12:42:14;;;;;;;2.10;1.13;;;38.40;26.50;;;;;;4992910;28;20084;-79
2022/08/23 12:44:40;;;;;;;1.95;1.02;;;38.40;26.30;;;;;;4991474;28;20041;-77
2022/08/23 12:47:19;;;;;;;3.97;1.20;;;38.40;26.80;;;;;;4981203;28;20042;-77
2022/08/23 12:49:54;;;;;;;4.15;1.20;;;38.40;26.70;;;;;;4995864;28;20030;-78
2022/08/23 12:52:26;;;;;;;6.03;1.63;;;38.50;26.30;;;;;;5002896;28;20049;-79
2022/08/23 12:54:53;;;;;;;2.53;1.33;;;38.50;26.40;;;;;;4981921;28;20048;-80
2022/08/23 12:57:23;;;;;;;2.95;1.10;;;38.60;26.50;;;;;;5000345;28;20030;-80
2022/08/23 12:59:57;;;;;;;3.83;1.10;;;38.70;26.40;;;;;;4996140;28;20065;-80
2022/08/23 13:02:25;;;;;;;4.22;1.65;;;38.70;25.90;;;;;;4982020;28;20049;-80
2022/08/23 13:04:50;;;;;;;2.38;0.95;;;38.70;26.10;;;;;;4969344;28;20299;-79
2022/08/23 13:07:19;;;;;;;2.10;0.88;;;38.70;26.10;;;;;;4977828;28;20141;-80
2022/08/23 13:09:45;;;;;;;2.05;1.00;;;38.80;26.00;;;;;;4989098;28;20038;-80